createdAt,value
2019-03-04T00:00:01.703Z,3.37
2019-03-04T00:01:10.434Z,2.97
2019-03-04T00:02:15.231Z,3.17
2019-03-04T00:03:19.582Z,3.30
2019-03-04T00:04:23.934Z,3.30
2019-03-04T00:05:28.162Z,3.20
2019-03-04T00:06:32.481Z,3.23
2019-03-04T00:07:36.780Z,2.60
2019-03-04T00:08:41.181Z,3.43
2019-03-04T00:09:45.595Z,2.90
2019-03-04T00:10:49.978Z,2.80
2019-03-04T00:11:54.430Z,3.20
2019-03-04T00:12:58.807Z,3.10
2019-03-04T00:14:03.080Z,3.60
2019-03-04T00:15:07.530Z,3.83
2019-03-04T00:16:11.833Z,3.33
2019-03-04T00:17:16.160Z,3.40
2019-03-04T00:18:20.622Z,3.20
2019-03-04T00:19:24.951Z,3.37
2019-03-04T00:20:29.278Z,3.27
2019-03-04T00:21:33.598Z,3.17
2019-03-04T00:22:38.022Z,3.70
2019-03-04T00:23:42.493Z,3.77
2019-03-04T00:24:46.686Z,4.33
2019-03-04T00:25:51.897Z,4.43
2019-03-04T00:26:55.544Z,3.70
2019-03-04T00:28:00.084Z,3.33
2019-03-04T00:29:04.340Z,3.57
2019-03-04T00:30:09.054Z,3.53
2019-03-04T00:31:13.322Z,3.60
2019-03-04T00:32:17.681Z,3.93
2019-03-04T00:33:21.980Z,3.97
2019-03-04T00:34:26.229Z,3.47
2019-03-04T00:35:30.420Z,3.40
2019-03-04T00:36:34.814Z,3.30
2019-03-04T00:37:39.267Z,3.30
2019-03-04T00:38:43.595Z,4.10
2019-03-04T00:39:47.976Z,4.10
2019-03-04T00:40:52.324Z,3.47
2019-03-04T00:41:56.622Z,4.07
2019-03-04T00:43:01.005Z,3.80
2019-03-04T00:44:05.408Z,3.90
2019-03-04T00:45:09.870Z,3.60
2019-03-04T00:46:14.218Z,3.90
2019-03-04T00:47:18.622Z,3.90
2019-03-04T00:48:22.846Z,3.87
2019-03-04T00:49:27.200Z,3.53
2019-03-04T00:50:31.429Z,3.63
2019-03-04T00:51:35.729Z,3.93
2019-03-04T00:52:39.840Z,4.17
2019-03-04T00:53:43.971Z,3.33
2019-03-04T00:54:48.493Z,3.50
2019-03-04T00:55:52.728Z,3.57
2019-03-04T00:56:56.977Z,4.03
2019-03-04T00:58:01.284Z,4.03
2019-03-04T00:59:05.631Z,4.20
2019-03-04T01:00:13.806Z,3.83
2019-03-04T01:01:18.110Z,3.40
2019-03-04T01:02:22.453Z,3.40
2019-03-04T01:03:26.792Z,4.00
2019-03-04T01:04:31.074Z,3.93
2019-03-04T01:05:35.315Z,4.43
2019-03-04T01:06:39.549Z,4.37
2019-03-04T01:07:43.950Z,3.93
2019-03-04T01:08:48.009Z,4.70
2019-03-04T01:09:52.185Z,4.40
2019-03-04T01:10:56.202Z,4.07
2019-03-04T01:12:00.250Z,4.20
2019-03-04T01:13:04.314Z,3.73
2019-03-04T01:14:08.338Z,4.40
2019-03-04T01:15:14.724Z,4.20
2019-03-04T01:16:18.748Z,3.87
2019-03-04T01:17:22.893Z,3.37
2019-03-04T01:18:27.000Z,3.87
2019-03-04T01:19:31.137Z,4.40
2019-03-04T01:20:35.312Z,3.83
2019-03-04T01:21:39.484Z,4.50
2019-03-04T01:22:43.522Z,4.13
2019-03-04T01:23:47.572Z,3.67
2019-03-04T01:24:51.574Z,4.03
2019-03-04T01:25:55.985Z,4.13
2019-03-04T01:27:00.393Z,4.63
2019-03-04T01:28:04.777Z,4.90
2019-03-04T01:29:08.730Z,4.20
2019-03-04T01:30:19.664Z,4.87
2019-03-04T01:31:24.106Z,5.03
2019-03-04T01:32:28.254Z,4.47
2019-03-04T01:33:32.715Z,4.80
2019-03-04T01:34:37.066Z,4.20
2019-03-04T01:35:41.411Z,3.97
2019-03-04T01:36:45.745Z,4.30
2019-03-04T01:37:50.048Z,4.47
2019-03-04T01:38:54.423Z,4.40
2019-03-04T01:39:58.918Z,3.87
2019-03-04T01:41:03.263Z,4.30
2019-03-04T01:42:07.724Z,4.57
2019-03-04T01:43:12.188Z,4.70
2019-03-04T01:44:16.558Z,4.80
2019-03-04T01:45:21.004Z,4.77
2019-03-04T01:46:25.476Z,4.20
2019-03-04T01:47:29.850Z,4.50
2019-03-04T01:48:34.140Z,4.03
2019-03-04T01:49:38.613Z,4.33
2019-03-04T01:50:42.942Z,4.00
2019-03-04T01:51:47.315Z,5.20
2019-03-04T01:52:51.844Z,5.47
2019-03-04T01:53:56.164Z,4.70
2019-03-04T01:55:00.487Z,4.97
2019-03-04T01:56:04.765Z,5.50
2019-03-04T01:57:09.034Z,4.77
2019-03-04T01:58:13.478Z,4.37
2019-03-04T01:59:17.805Z,4.63
2019-03-04T02:00:22.302Z,4.37
2019-03-04T02:01:26.631Z,4.13
2019-03-04T02:02:30.809Z,3.60
2019-03-04T02:03:35.321Z,5.43
2019-03-04T02:04:39.629Z,4.57
2019-03-04T02:05:43.987Z,5.50
2019-03-04T02:06:54.846Z,5.93
2019-03-04T02:07:59.340Z,4.70
2019-03-04T02:09:04.403Z,5.50
2019-03-04T02:10:10.826Z,4.83
2019-03-04T02:11:15.159Z,5.37
2019-03-04T02:12:19.586Z,5.27
2019-03-04T02:13:23.997Z,5.70
2019-03-04T02:14:28.391Z,5.00
2019-03-04T02:15:32.844Z,5.03
2019-03-04T02:16:36.921Z,5.23
2019-03-04T02:17:41.299Z,5.67
2019-03-04T02:18:45.618Z,5.33
2019-03-04T02:19:49.851Z,5.40
2019-03-04T02:20:54.119Z,4.90
2019-03-04T02:21:58.409Z,5.57
2019-03-04T02:23:02.914Z,5.40
2019-03-04T02:24:18.427Z,6.03
2019-03-04T02:25:28.461Z,5.53
2019-03-04T02:26:33.077Z,4.90
2019-03-04T02:27:37.461Z,5.10
2019-03-04T02:28:41.749Z,6.23
2019-03-04T02:29:46.099Z,4.63
2019-03-04T02:30:50.405Z,5.10
2019-03-04T02:31:54.713Z,6.43
2019-03-04T02:32:58.933Z,5.70
2019-03-04T02:34:03.320Z,5.70
2019-03-04T02:35:07.661Z,5.10
2019-03-04T02:36:12.101Z,6.20
2019-03-04T02:37:16.474Z,6.07
2019-03-04T02:38:20.758Z,5.33
2019-03-04T02:39:25.181Z,6.20
2019-03-04T02:40:29.488Z,5.67
2019-03-04T02:41:34.099Z,5.53
2019-03-04T02:42:38.383Z,5.67
2019-03-04T02:43:42.689Z,6.30
2019-03-04T02:44:46.981Z,5.20
2019-03-04T02:45:51.395Z,6.23
2019-03-04T02:46:55.871Z,6.40
2019-03-04T02:48:00.259Z,6.03
2019-03-04T02:49:04.546Z,6.37
2019-03-04T02:50:09.050Z,6.53
2019-03-04T02:51:13.345Z,6.50
2019-03-04T02:52:17.723Z,6.80
2019-03-04T02:53:22.017Z,6.47
2019-03-04T02:54:26.598Z,6.10
2019-03-04T02:55:30.726Z,6.30
2019-03-04T02:56:35.230Z,6.43
2019-03-04T02:57:39.790Z,5.60
2019-03-04T02:58:44.186Z,5.90
2019-03-04T02:59:48.480Z,6.13
2019-03-04T03:00:52.814Z,6.27
2019-03-04T03:01:57.211Z,5.53
2019-03-04T03:03:01.735Z,6.37
2019-03-04T03:04:06.102Z,6.93
2019-03-04T03:05:10.521Z,6.23
2019-03-04T03:06:14.799Z,5.07
2019-03-04T03:07:19.170Z,7.00
2019-03-04T03:08:23.616Z,6.10
2019-03-04T03:09:28.077Z,6.37
2019-03-04T03:10:32.412Z,6.17
2019-03-04T03:11:36.811Z,5.50
2019-03-04T03:12:41.192Z,6.13
2019-03-04T03:13:45.538Z,6.80
2019-03-04T03:14:49.887Z,5.63
2019-03-04T03:15:54.363Z,6.40
2019-03-04T03:16:58.671Z,7.30
2019-03-04T03:18:03.113Z,5.70
2019-03-04T03:19:07.466Z,5.63
2019-03-04T03:20:12.075Z,5.70
2019-03-04T03:21:16.362Z,5.33
2019-03-04T03:22:20.786Z,5.63
2019-03-04T03:23:25.211Z,5.70
2019-03-04T03:24:29.662Z,5.80
2019-03-04T03:25:33.974Z,5.30
2019-03-04T03:26:38.506Z,6.17
2019-03-04T03:27:42.856Z,5.80
2019-03-04T03:28:47.222Z,5.37
2019-03-04T03:29:52.156Z,5.80
2019-03-04T03:30:56.212Z,5.67
2019-03-04T03:32:00.574Z,5.33
2019-03-04T03:33:04.891Z,5.07
2019-03-04T03:34:09.313Z,5.47
2019-03-04T03:35:13.776Z,5.40
2019-03-04T03:36:18.031Z,5.90
2019-03-04T03:37:22.397Z,5.80
2019-03-04T03:38:26.738Z,5.80
2019-03-04T03:39:31.012Z,6.10
2019-03-04T03:40:35.062Z,5.87
2019-03-04T03:41:39.321Z,5.80
2019-03-04T03:42:43.663Z,6.60
2019-03-04T03:43:47.939Z,5.57
2019-03-04T03:44:52.285Z,5.97
2019-03-04T03:45:56.634Z,5.77
2019-03-04T03:47:00.785Z,5.53
2019-03-04T03:48:05.116Z,5.77
2019-03-04T03:49:09.476Z,5.97
2019-03-04T03:50:13.935Z,5.47
2019-03-04T03:51:18.320Z,5.63
2019-03-04T03:52:22.642Z,6.10
2019-03-04T03:53:26.867Z,5.97
2019-03-04T03:54:31.396Z,5.67
2019-03-04T03:55:35.824Z,5.37
2019-03-04T03:56:40.196Z,6.10
2019-03-04T03:57:44.593Z,5.77
2019-03-04T03:58:48.704Z,5.20
2019-03-04T03:59:52.756Z,5.60
2019-03-04T04:00:56.791Z,5.37
2019-03-04T04:02:00.846Z,5.47
2019-03-04T04:03:04.919Z,5.70
2019-03-04T04:04:08.923Z,5.67
2019-03-04T04:05:12.973Z,5.50
2019-03-04T04:06:16.983Z,5.77
2019-03-04T04:07:21.102Z,5.10
2019-03-04T04:08:25.142Z,5.13
2019-03-04T04:09:29.163Z,6.10
2019-03-04T04:10:33.205Z,5.27
2019-03-04T04:11:37.233Z,5.57
2019-03-04T04:12:41.362Z,5.03
2019-03-04T04:13:45.452Z,6.93
2019-03-04T04:14:49.490Z,5.17
2019-03-04T04:15:53.485Z,5.33
2019-03-04T04:16:57.465Z,5.20
2019-03-04T04:18:01.533Z,5.47
2019-03-04T04:19:05.551Z,5.67
2019-03-04T04:20:09.738Z,5.47
2019-03-04T04:21:13.785Z,5.63
2019-03-04T04:22:17.820Z,5.57
2019-03-04T04:23:21.882Z,5.60
2019-03-04T04:24:25.970Z,5.43
2019-03-04T04:25:30.069Z,5.67
2019-03-04T04:26:34.145Z,5.10
2019-03-04T04:27:38.210Z,5.60
2019-03-04T04:28:42.549Z,5.77
2019-03-04T04:29:46.582Z,5.20
2019-03-04T04:30:50.573Z,5.20
2019-03-04T04:31:54.594Z,5.53
2019-03-04T04:32:58.627Z,5.30
2019-03-04T04:34:02.776Z,5.63
2019-03-04T04:35:07.174Z,5.40
2019-03-04T04:36:11.186Z,5.17
2019-03-04T04:37:15.505Z,6.13
2019-03-04T04:38:19.805Z,5.47
2019-03-04T04:39:24.225Z,5.43
2019-03-04T04:40:28.619Z,5.30
2019-03-04T04:41:32.805Z,5.60
2019-03-04T04:42:36.860Z,5.13
2019-03-04T04:43:40.837Z,5.50
2019-03-04T04:44:44.903Z,5.17
2019-03-04T04:45:48.932Z,5.63
2019-03-04T04:46:54.665Z,5.87
2019-03-04T04:47:58.728Z,5.63
2019-03-04T04:49:02.738Z,5.80
2019-03-04T04:50:08.463Z,5.73
2019-03-04T04:51:12.488Z,5.03
2019-03-04T04:52:16.513Z,5.63
2019-03-04T04:53:20.576Z,5.27
2019-03-04T04:54:24.810Z,6.10
2019-03-04T04:55:29.197Z,5.60
2019-03-04T04:56:33.451Z,5.80
2019-03-04T04:57:37.746Z,5.90
2019-03-04T04:58:42.840Z,5.40
2019-03-04T04:59:47.214Z,4.80
2019-03-04T05:00:51.427Z,5.87
2019-03-04T05:01:55.828Z,5.93
2019-03-04T05:03:00.236Z,5.30
2019-03-04T05:04:04.712Z,5.77
2019-03-04T05:05:09.129Z,5.77
2019-03-04T05:06:13.524Z,5.40
2019-03-04T05:07:17.780Z,5.53
2019-03-04T05:08:22.169Z,5.30
2019-03-04T05:09:26.416Z,5.13
2019-03-04T05:10:30.763Z,5.67
2019-03-04T05:11:35.161Z,5.40
2019-03-04T05:12:39.386Z,5.43
2019-03-04T05:13:43.454Z,5.43
2019-03-04T05:14:47.684Z,5.30
2019-03-04T05:15:52.119Z,5.17
2019-03-04T05:16:56.392Z,5.30
2019-03-04T05:18:00.734Z,5.30
2019-03-04T05:19:04.785Z,5.60
2019-03-04T05:20:11.642Z,5.47
2019-03-04T05:21:15.654Z,5.27
2019-03-04T05:22:19.779Z,5.00
2019-03-04T05:23:23.829Z,5.40
2019-03-04T05:24:29.531Z,5.03
2019-03-04T05:25:31.909Z,4.90
2019-03-04T05:26:35.941Z,4.70
2019-03-04T05:27:40.096Z,4.97
2019-03-04T05:28:44.095Z,5.43
2019-03-04T05:29:48.274Z,4.87
2019-03-04T05:30:52.286Z,4.90
2019-03-04T05:31:56.316Z,4.73
2019-03-04T05:33:00.489Z,4.63
2019-03-04T05:34:04.660Z,4.67
2019-03-04T05:35:08.818Z,4.97
2019-03-04T05:36:12.902Z,4.63
2019-03-04T05:37:16.989Z,4.67
2019-03-04T05:38:21.042Z,4.93
2019-03-04T05:39:25.224Z,5.10
2019-03-04T05:40:29.262Z,5.00
2019-03-04T05:41:33.254Z,5.00
2019-03-04T05:42:37.275Z,4.93
2019-03-04T05:43:41.354Z,4.53
2019-03-04T05:44:45.334Z,4.20
2019-03-04T05:45:49.432Z,4.60
2019-03-04T05:46:53.447Z,4.53
2019-03-04T05:47:57.539Z,4.10
2019-03-04T05:49:01.714Z,4.40
2019-03-04T05:50:06.698Z,4.23
2019-03-04T05:51:10.679Z,4.33
2019-03-04T05:52:14.693Z,4.30
2019-03-04T05:53:18.715Z,4.33
2019-03-04T05:54:22.833Z,4.13
2019-03-04T05:55:26.897Z,4.47
2019-03-04T05:56:30.934Z,4.27
2019-03-04T05:57:35.319Z,4.77
2019-03-04T05:58:39.739Z,4.10
2019-03-04T05:59:44.100Z,4.27
2019-03-04T06:00:48.482Z,4.53
2019-03-04T06:02:01.381Z,4.10
2019-03-04T06:03:05.854Z,3.93
2019-03-04T06:04:11.637Z,3.93
2019-03-04T06:05:16.013Z,4.00
2019-03-04T06:06:25.460Z,3.73
2019-03-04T06:07:37.091Z,3.87
2019-03-04T06:08:41.365Z,4.20
2019-03-04T06:09:45.745Z,3.50
2019-03-04T06:10:50.335Z,4.00
2019-03-04T06:11:54.697Z,3.80
2019-03-04T06:12:59.058Z,4.00
2019-03-04T06:14:03.399Z,4.20
2019-03-04T06:15:10.629Z,3.70
2019-03-04T06:16:15.059Z,3.20
2019-03-04T06:17:19.395Z,3.77
2019-03-04T06:18:23.726Z,3.47
2019-03-04T06:19:27.968Z,3.60
2019-03-04T06:20:32.311Z,3.80
2019-03-04T06:21:36.682Z,3.60
2019-03-04T06:22:41.072Z,4.10
2019-03-04T06:23:45.379Z,3.83
2019-03-04T06:24:49.654Z,3.73
2019-03-04T06:25:53.994Z,4.27
2019-03-04T06:26:58.428Z,3.87
2019-03-04T06:28:02.842Z,3.50
2019-03-04T06:29:07.193Z,3.20
2019-03-04T06:30:14.683Z,3.40
2019-03-04T06:31:18.904Z,3.20
2019-03-04T06:32:23.459Z,3.53
2019-03-04T06:33:27.834Z,3.70
2019-03-04T06:34:32.138Z,3.60
2019-03-04T06:35:36.425Z,3.63
2019-03-04T06:36:40.741Z,3.90
2019-03-04T06:37:45.144Z,3.60
2019-03-04T06:38:49.586Z,3.80
2019-03-04T06:39:53.937Z,3.70
2019-03-04T06:40:58.269Z,3.40
2019-03-04T06:42:02.472Z,3.60
2019-03-04T06:43:06.846Z,3.30
2019-03-04T06:44:11.235Z,3.90
2019-03-04T06:45:15.564Z,3.50
2019-03-04T06:46:19.878Z,3.33
2019-03-04T06:47:24.188Z,3.30
2019-03-04T06:48:28.648Z,3.50
2019-03-04T06:49:32.868Z,3.80
2019-03-04T06:50:47.386Z,3.10
2019-03-04T06:51:52.223Z,4.63
2019-03-04T06:52:56.489Z,3.90
2019-03-04T06:55:14.059Z,3.67
2019-03-04T06:56:57.809Z,4.50
2019-03-04T06:58:02.190Z,7.77
2019-03-04T06:59:11.096Z,7.20
2019-03-04T07:00:29.412Z,6.30
2019-03-04T07:01:39.906Z,6.43
2019-03-04T07:02:44.255Z,6.33
2019-03-04T07:03:56.299Z,6.67
2019-03-04T07:05:13.828Z,6.37
2019-03-04T07:06:17.839Z,6.17
2019-03-04T07:07:21.877Z,6.67
2019-03-04T07:09:33.062Z,6.47
2019-03-04T07:10:37.165Z,7.20
2019-03-04T07:11:44.407Z,6.00
2019-03-04T07:12:48.476Z,5.73
2019-03-04T07:13:52.510Z,6.30
2019-03-04T07:14:56.549Z,6.43
2019-03-04T07:16:00.664Z,6.60
2019-03-04T07:17:04.781Z,5.70
2019-03-04T07:18:08.805Z,6.13
2019-03-04T07:19:17.735Z,4.60
2019-03-04T07:20:21.826Z,5.37
2019-03-04T07:21:26.147Z,5.87
2019-03-04T07:22:30.527Z,5.40
2019-03-04T07:23:34.861Z,4.30
2019-03-04T07:24:39.146Z,4.47
2019-03-04T07:25:43.475Z,4.37
2019-03-04T07:26:47.801Z,4.57
2019-03-04T07:27:52.206Z,4.40
2019-03-04T07:28:56.498Z,3.97
2019-03-04T07:30:00.803Z,4.20
2019-03-04T07:31:05.130Z,4.20
2019-03-04T07:32:09.518Z,3.60
2019-03-04T07:33:13.933Z,3.77
2019-03-04T07:34:18.454Z,3.73
2019-03-04T07:35:22.779Z,3.70
2019-03-04T07:36:27.169Z,3.50
2019-03-04T07:37:31.665Z,3.87
2019-03-04T07:38:44.770Z,3.30
2019-03-04T07:39:49.087Z,3.30
2019-03-04T07:40:53.533Z,3.23
2019-03-04T07:41:59.136Z,3.83
2019-03-04T07:43:03.524Z,3.03
2019-03-04T07:44:07.861Z,3.33
2019-03-04T07:45:12.533Z,3.20
2019-03-04T07:46:16.905Z,3.27
2019-03-04T07:47:21.342Z,3.37
2019-03-04T07:48:25.767Z,3.13
2019-03-04T07:49:30.123Z,3.07
2019-03-04T07:50:34.422Z,3.00
2019-03-04T07:51:38.843Z,2.80
2019-03-04T07:52:43.166Z,2.87
2019-03-04T07:53:47.509Z,2.40
2019-03-04T07:54:51.895Z,2.80
2019-03-04T07:55:56.268Z,2.60
2019-03-04T07:57:00.502Z,2.60
2019-03-04T07:58:04.994Z,2.50
2019-03-04T07:59:09.450Z,2.40
2019-03-04T08:00:13.917Z,2.30
2019-03-04T08:01:18.347Z,2.40
2019-03-04T08:02:22.747Z,1.90
2019-03-04T08:03:26.985Z,2.33
2019-03-04T08:04:31.410Z,2.20
2019-03-04T08:05:35.773Z,2.20
2019-03-04T08:06:40.185Z,2.27
2019-03-04T08:07:46.829Z,2.10
2019-03-04T08:09:05.919Z,1.97
2019-03-04T08:10:55.264Z,2.07
2019-03-04T08:13:07.269Z,1.67
2019-03-04T08:14:11.687Z,1.80
2019-03-04T08:15:16.062Z,1.70
2019-03-04T08:16:20.488Z,1.57
2019-03-04T08:17:24.878Z,1.70
2019-03-04T08:18:29.289Z,1.60
2019-03-04T08:19:33.675Z,1.70
2019-03-04T08:20:37.942Z,1.53
2019-03-04T08:21:42.525Z,1.70
2019-03-04T08:22:46.805Z,1.80
2019-03-04T08:23:51.184Z,1.40
2019-03-04T08:24:55.567Z,1.30
2019-03-04T08:25:59.713Z,1.50
2019-03-04T08:27:04.229Z,1.43
2019-03-04T08:28:09.941Z,1.40
2019-03-04T08:29:14.234Z,1.60
2019-03-04T08:30:20.482Z,1.27
2019-03-04T08:31:24.804Z,1.50
2019-03-04T08:32:29.220Z,1.20
2019-03-04T08:33:33.418Z,1.27
2019-03-04T08:34:37.698Z,1.60
2019-03-04T08:35:42.111Z,1.30
2019-03-04T08:36:46.426Z,1.10
2019-03-04T08:37:50.754Z,1.10
2019-03-04T08:38:55.043Z,1.20
2019-03-04T08:39:59.266Z,1.30
2019-03-04T08:41:03.608Z,1.30
2019-03-04T08:42:08.155Z,1.20
2019-03-04T08:43:13.537Z,1.10
2019-03-04T08:44:17.831Z,1.30
2019-03-04T08:45:22.083Z,1.20
2019-03-04T08:46:26.449Z,1.30
2019-03-04T08:47:30.783Z,1.00
2019-03-04T08:48:35.207Z,1.33
2019-03-04T08:49:39.561Z,1.17
2019-03-04T08:50:43.917Z,1.10
2019-03-04T08:51:48.373Z,1.10
2019-03-04T08:52:52.742Z,1.00
2019-03-04T08:53:57.097Z,1.13
2019-03-04T08:55:01.441Z,1.20
2019-03-04T08:56:05.790Z,1.20
2019-03-04T08:57:10.210Z,1.23
2019-03-04T08:58:14.468Z,1.30
2019-03-04T08:59:18.904Z,1.17
2019-03-04T09:00:25.676Z,1.10
2019-03-04T09:01:31.278Z,1.00
2019-03-04T09:02:34.491Z,1.30
2019-03-04T09:03:38.762Z,1.03
2019-03-04T09:04:43.063Z,1.17
2019-03-04T09:05:47.395Z,1.27
2019-03-04T09:06:51.611Z,1.10
2019-03-04T09:07:56.031Z,1.10
2019-03-04T09:09:00.384Z,1.20
2019-03-04T09:10:05.698Z,1.10
2019-03-04T09:11:16.387Z,1.13
2019-03-04T09:12:20.685Z,1.00
2019-03-04T09:13:24.900Z,1.50
2019-03-04T09:14:29.097Z,1.30
2019-03-04T09:15:33.401Z,1.20
2019-03-04T09:16:37.664Z,1.30
2019-03-04T09:17:42.174Z,1.30
2019-03-04T09:18:46.422Z,1.30
2019-03-04T09:19:50.759Z,1.20
2019-03-04T09:20:55.084Z,1.30
2019-03-04T09:21:59.498Z,1.17
2019-03-04T09:23:04.019Z,1.10
2019-03-04T09:24:08.415Z,1.20
2019-03-04T09:25:15.785Z,1.13
2019-03-04T09:26:20.133Z,1.37
2019-03-04T09:27:24.475Z,1.07
2019-03-04T09:28:28.709Z,1.20
2019-03-04T09:29:32.960Z,1.10
2019-03-04T09:30:37.343Z,1.20
2019-03-04T09:31:41.717Z,1.10
2019-03-04T09:32:46.265Z,0.93
2019-03-04T09:33:50.570Z,1.20
2019-03-04T09:34:55.016Z,1.00
2019-03-04T09:35:59.357Z,1.00
2019-03-04T09:37:03.810Z,1.17
2019-03-04T09:38:08.256Z,1.10
2019-03-04T09:39:13.931Z,1.20
2019-03-04T09:40:18.297Z,1.10
2019-03-04T09:41:22.794Z,0.80
2019-03-04T09:42:27.242Z,1.10
2019-03-04T09:43:31.521Z,1.00
2019-03-04T09:44:35.753Z,1.00
2019-03-04T09:45:40.145Z,0.90
2019-03-04T09:46:44.483Z,1.20
2019-03-04T09:47:48.801Z,0.90
2019-03-04T09:48:53.107Z,0.97
2019-03-04T09:49:57.475Z,0.90
2019-03-04T09:51:01.828Z,0.70
2019-03-04T09:52:06.159Z,1.20
2019-03-04T09:53:10.553Z,1.00
2019-03-04T09:54:14.643Z,0.90
2019-03-04T09:55:19.176Z,0.90
2019-03-04T09:56:23.500Z,1.00
2019-03-04T09:57:27.933Z,1.13
2019-03-04T09:58:32.243Z,1.03
2019-03-04T09:59:36.521Z,0.90
2019-03-04T10:00:45.229Z,1.00
2019-03-04T10:01:53.656Z,0.97
2019-03-04T10:02:59.640Z,1.10
2019-03-04T10:06:25.316Z,1.10
2019-03-04T10:07:36.916Z,0.93
2019-03-04T10:08:56.326Z,0.70
2019-03-04T10:10:11.031Z,0.90
2019-03-04T10:11:37.646Z,0.80
2019-03-04T10:14:20.154Z,1.00
2019-03-04T10:15:38.801Z,0.77
2019-03-04T10:18:56.971Z,0.83
2019-03-04T10:20:23.393Z,0.83
2019-03-04T10:21:38.227Z,0.90
2019-03-04T10:23:57.392Z,1.00
2019-03-04T10:25:20.404Z,0.90
2019-03-04T10:26:41.110Z,0.97
2019-03-04T10:28:31.308Z,0.83
2019-03-04T10:32:50.741Z,0.77
2019-03-04T10:34:10.698Z,0.60
2019-03-04T10:35:25.609Z,0.80
2019-03-04T10:38:47.268Z,0.60
2019-03-04T10:40:33.946Z,0.60
2019-03-04T10:41:56.627Z,0.57
2019-03-04T10:43:11.706Z,0.50
2019-03-04T10:44:37.492Z,0.70
2019-03-04T10:46:29.919Z,0.70
2019-03-04T10:47:34.298Z,0.70
2019-03-04T10:48:38.662Z,0.40
2019-03-04T10:49:42.959Z,0.60
2019-03-04T10:50:47.374Z,0.50
2019-03-04T10:51:51.789Z,0.50
2019-03-04T10:52:56.255Z,0.50
2019-03-04T10:54:00.610Z,0.70
2019-03-04T10:55:05.531Z,0.50
2019-03-04T10:56:10.039Z,0.50
2019-03-04T10:57:14.393Z,0.60
2019-03-04T10:58:18.724Z,0.60
2019-03-04T10:59:22.833Z,0.47
2019-03-04T11:00:27.181Z,0.50
2019-03-04T11:01:31.467Z,0.50
2019-03-04T11:02:35.846Z,0.73
2019-03-04T11:03:40.161Z,0.60
2019-03-04T11:04:44.453Z,0.50
2019-03-04T11:05:48.725Z,0.60
2019-03-04T11:06:54.814Z,0.60
2019-03-04T11:07:57.514Z,0.40
2019-03-04T11:09:01.916Z,0.40
2019-03-04T11:10:06.546Z,0.60
2019-03-04T11:11:10.935Z,0.60
2019-03-04T11:12:15.340Z,1.00
2019-03-04T11:13:19.543Z,0.50
2019-03-04T11:14:23.846Z,0.50
2019-03-04T11:15:28.301Z,0.50
2019-03-04T11:16:32.598Z,0.50
2019-03-04T11:17:37.035Z,0.50
2019-03-04T11:18:41.364Z,0.47
2019-03-04T11:19:45.715Z,0.40
2019-03-04T11:20:50.156Z,0.40
2019-03-04T11:21:54.737Z,0.50
2019-03-04T11:22:59.142Z,0.40
2019-03-04T11:24:03.546Z,0.50
2019-03-04T11:25:07.851Z,0.50
2019-03-04T11:26:12.158Z,0.50
2019-03-04T11:27:16.513Z,0.60
2019-03-04T11:28:20.870Z,0.60
2019-03-04T11:29:25.127Z,0.40
2019-03-04T11:30:30.301Z,0.60
2019-03-04T11:31:34.512Z,0.50
2019-03-04T11:32:38.900Z,0.50
2019-03-04T11:33:43.219Z,0.50
2019-03-04T11:34:47.574Z,0.40
2019-03-04T11:35:51.885Z,0.30
2019-03-04T11:36:56.293Z,0.40
2019-03-04T11:38:00.821Z,0.30
2019-03-04T11:39:15.178Z,0.60
2019-03-04T11:40:25.749Z,0.40
2019-03-04T11:41:30.199Z,0.40
2019-03-04T11:42:34.669Z,0.40
2019-03-04T11:43:39.017Z,0.33
2019-03-04T11:44:43.322Z,0.40
2019-03-04T11:45:47.613Z,0.40
2019-03-04T11:46:51.937Z,0.30
2019-03-04T11:47:56.250Z,0.30
2019-03-04T11:49:00.584Z,0.30
2019-03-04T11:50:05.723Z,0.37
2019-03-04T11:51:10.076Z,0.40
2019-03-04T11:52:14.526Z,0.50
2019-03-04T11:53:19.063Z,0.40
2019-03-04T11:54:23.321Z,0.40
2019-03-04T11:55:27.852Z,0.50
2019-03-04T11:56:32.275Z,0.40
2019-03-04T11:57:36.558Z,0.40
2019-03-04T11:58:40.953Z,0.50
2019-03-04T11:59:45.302Z,0.40
2019-03-04T12:00:54.976Z,0.40
2019-03-04T12:01:59.338Z,0.40
2019-03-04T12:03:03.740Z,0.40
2019-03-04T12:04:08.289Z,0.40
2019-03-04T12:05:12.806Z,0.30
2019-03-04T12:06:17.247Z,0.50
2019-03-04T12:07:21.694Z,0.50
2019-03-04T12:08:25.929Z,0.40
2019-03-04T12:09:30.405Z,0.50
2019-03-04T12:10:34.721Z,0.40
2019-03-04T12:11:39.100Z,0.40
2019-03-04T12:12:43.334Z,0.40
2019-03-04T12:13:47.638Z,0.60
2019-03-04T12:14:52.109Z,0.40
2019-03-04T12:15:56.416Z,0.50
2019-03-04T12:17:00.786Z,0.40
2019-03-04T12:18:05.353Z,0.50
2019-03-04T12:19:09.597Z,0.60
2019-03-04T12:20:14.180Z,0.60
2019-03-04T12:21:18.475Z,0.50
2019-03-04T12:22:22.795Z,0.60
2019-03-04T12:23:27.190Z,0.60
2019-03-04T12:24:31.508Z,0.40
2019-03-04T12:25:35.817Z,0.60
2019-03-04T12:26:40.163Z,0.60
2019-03-04T12:27:44.460Z,0.57
2019-03-04T12:28:49.011Z,0.40
2019-03-04T12:29:53.293Z,0.50
2019-03-04T12:30:57.772Z,0.60
2019-03-04T12:32:07.619Z,0.60
2019-03-04T12:33:12.016Z,0.50
2019-03-04T12:34:24.658Z,0.60
2019-03-04T12:35:24.291Z,0.67
2019-03-04T12:36:28.392Z,0.83
2019-03-04T12:37:32.562Z,0.60
2019-03-04T12:38:36.598Z,0.57
2019-03-04T12:39:40.577Z,0.50
2019-03-04T12:40:44.560Z,0.70
2019-03-04T12:41:49.759Z,0.60
2019-03-04T12:42:52.727Z,0.60
2019-03-04T12:43:56.759Z,0.60
2019-03-04T12:45:00.792Z,0.60
2019-03-04T12:46:04.923Z,0.80
2019-03-04T12:47:09.018Z,0.57
2019-03-04T12:48:13.040Z,0.60
2019-03-04T12:49:17.105Z,0.50
2019-03-04T12:50:23.353Z,0.47
2019-03-04T12:51:27.422Z,0.70
2019-03-04T12:52:31.541Z,0.77
2019-03-04T12:53:37.485Z,0.80
2019-03-04T12:54:39.714Z,0.90
2019-03-04T12:55:43.750Z,0.80
2019-03-04T12:56:47.772Z,0.70
2019-03-04T12:57:51.913Z,0.70
2019-03-04T12:58:55.962Z,0.70
2019-03-04T12:59:59.947Z,0.70
2019-03-04T13:01:04.097Z,0.60
2019-03-04T13:02:08.348Z,0.70
2019-03-04T13:03:20.887Z,0.60
2019-03-04T13:04:24.994Z,0.80
2019-03-04T13:05:29.215Z,0.63
2019-03-04T13:06:33.277Z,0.70
2019-03-04T13:07:37.394Z,0.70
2019-03-04T13:08:41.654Z,0.87
2019-03-04T13:09:45.731Z,0.80
2019-03-04T13:10:49.860Z,0.70
2019-03-04T13:11:54.197Z,0.60
2019-03-04T13:12:58.586Z,0.67
2019-03-04T13:14:02.859Z,0.70
2019-03-04T13:15:09.602Z,0.80
2019-03-04T13:16:13.878Z,0.80
2019-03-04T13:17:18.148Z,0.80
2019-03-04T13:18:22.514Z,1.83
2019-03-04T13:19:26.766Z,1.10
2019-03-04T13:20:31.146Z,0.90
2019-03-04T13:21:35.430Z,0.73
2019-03-04T13:22:39.760Z,0.90
2019-03-04T13:23:44.156Z,0.80
2019-03-04T13:24:48.529Z,0.80
2019-03-04T13:25:52.870Z,0.80
2019-03-04T13:26:57.169Z,0.90
2019-03-04T13:28:08.229Z,0.90
2019-03-04T13:29:05.933Z,1.00
2019-03-04T13:30:13.437Z,0.70
2019-03-04T13:31:17.800Z,0.90
2019-03-04T13:32:22.133Z,0.70
2019-03-04T13:33:26.436Z,1.00
2019-03-04T13:34:30.782Z,1.40
2019-03-04T13:35:35.184Z,1.00
2019-03-04T13:36:39.529Z,0.87
2019-03-04T13:37:43.860Z,0.80
2019-03-04T13:38:48.238Z,1.10
2019-03-04T13:39:52.784Z,1.03
2019-03-04T13:40:56.995Z,1.20
2019-03-04T13:42:01.296Z,1.10
2019-03-04T13:43:05.593Z,1.23
2019-03-04T13:44:09.909Z,1.00
2019-03-04T13:45:14.643Z,1.30
2019-03-04T13:46:19.036Z,1.30
2019-03-04T13:47:23.583Z,1.40
2019-03-04T13:48:27.991Z,1.10
2019-03-04T13:49:32.300Z,1.30
2019-03-04T13:50:36.888Z,1.30
2019-03-04T13:51:41.228Z,1.40
2019-03-04T13:52:45.589Z,1.30
2019-03-04T13:53:49.908Z,1.30
2019-03-04T13:54:54.205Z,1.30
2019-03-04T13:55:58.548Z,1.90
2019-03-04T13:57:02.963Z,1.60
2019-03-04T13:58:07.344Z,1.30
2019-03-04T13:59:11.391Z,1.43
2019-03-04T14:00:17.729Z,1.40
2019-03-04T14:01:21.836Z,1.40
2019-03-04T14:02:26.356Z,1.43
2019-03-04T14:03:30.738Z,1.20
2019-03-04T14:04:34.881Z,1.10
2019-03-04T14:05:39.245Z,1.27
2019-03-04T14:06:43.478Z,1.30
2019-03-04T14:07:47.963Z,1.30
2019-03-04T14:08:52.311Z,0.93
2019-03-04T14:09:56.682Z,1.30
2019-03-04T14:11:00.887Z,1.20
2019-03-04T14:12:05.195Z,1.10
2019-03-04T14:13:09.809Z,1.30
2019-03-04T14:14:14.386Z,1.40
2019-03-04T14:15:22.536Z,1.20
2019-03-04T14:16:26.943Z,1.30
2019-03-04T14:17:31.411Z,1.30
2019-03-04T14:18:35.809Z,1.10
2019-03-04T14:19:40.192Z,1.13
2019-03-04T14:20:44.561Z,1.43
2019-03-04T14:21:48.942Z,1.27
2019-03-04T14:22:57.556Z,1.80
2019-03-04T14:23:57.790Z,1.50
2019-03-04T14:25:02.112Z,1.10
2019-03-04T14:26:06.590Z,1.20
2019-03-04T14:27:10.707Z,1.30
2019-03-04T14:28:15.053Z,1.30
2019-03-04T14:29:19.549Z,1.40
2019-03-04T14:30:23.854Z,1.20
2019-03-04T14:31:28.281Z,1.20
2019-03-04T14:32:32.760Z,1.27
2019-03-04T14:33:37.114Z,1.27
2019-03-04T14:34:41.461Z,1.50
2019-03-04T14:35:45.862Z,1.23
2019-03-04T14:36:49.938Z,1.70
2019-03-04T14:37:54.327Z,1.20
2019-03-04T14:38:58.581Z,1.40
2019-03-04T14:40:03.030Z,1.30
2019-03-04T14:41:07.355Z,1.30
2019-03-04T14:42:11.674Z,2.00
2019-03-04T14:43:15.995Z,1.43